Time;durP1;ratioP1;P1;durP2;ratioP2;P2;SDS_P1;SDS_P2;PMS_P1;PMS_P2;Temp;Humidity;BMP_temperature;BMP_pressure;BME280_temperature;BME280_humidity;BME280_pressure;Samples;Min_cycle;Max_cycle;Signal;HPM_P1;HPM_P2
2023/09/14 00:00:49;;;;;;;3.50;1.88;;;16.60;99.90;;;;;;4975926;28;20114;-51
2023/09/14 00:03:15;;;;;;;5.82;1.95;;;16.50;99.90;;;;;;4975757;28;20534;-49
2023/09/14 00:05:42;;;;;;;4.45;1.85;;;16.40;99.90;;;;;;4974267;28;20126;-49
2023/09/14 00:08:07;;;;;;;4.97;1.67;;;16.40;99.90;;;;;;4975795;28;20027;-47
2023/09/14 00:10:33;;;;;;;4.38;1.60;;;16.30;99.90;;;;;;4975433;28;20034;-47
2023/09/14 00:12:59;;;;;;;3.08;1.60;;;16.30;99.90;;;;;;4975638;28;20046;-51
2023/09/14 00:15:25;;;;;;;1.98;1.70;;;16.20;99.90;;;;;;4975211;28;20023;-49
2023/09/14 00:17:51;;;;;;;3.47;2.13;;;16.20;99.90;;;;;;4975387;28;20033;-51
2023/09/14 00:20:21;;;;;;;3.47;1.85;;;16.20;99.90;;;;;;4974024;28;20038;-47
2023/09/14 00:22:49;;;;;;;8.52;1.88;;;16.20;99.90;;;;;;4975290;28;20062;-49
2023/09/14 00:25:15;;;;;;;2.42;1.67;;;16.20;99.90;;;;;;4974809;28;20102;-50
2023/09/14 00:27:40;;;;;;;4.45;1.80;;;16.10;99.90;;;;;;4975250;28;20039;-51
2023/09/14 00:30:06;;;;;;;2.85;1.75;;;16.10;99.90;;;;;;4975261;28;20027;-48
2023/09/14 00:32:38;;;;;;;2.92;1.77;;;16.00;99.90;;;;;;4975082;28;20038;-51
2023/09/14 00:35:05;;;;;;;3.33;2.08;;;15.90;99.90;;;;;;4974945;28;20449;-48
2023/09/14 00:37:31;;;;;;;3.55;2.00;;;15.80;99.90;;;;;;4974968;28;20023;-47
2023/09/14 00:39:56;;;;;;;3.42;1.55;;;15.70;99.90;;;;;;4975125;28;20073;-48
2023/09/14 00:42:22;;;;;;;3.05;1.70;;;15.80;99.90;;;;;;4974865;28;20054;-48
2023/09/14 00:44:47;;;;;;;4.22;1.90;;;15.80;99.90;;;;;;4974851;28;20026;-50
2023/09/14 00:47:13;;;;;;;2.70;1.42;;;15.80;99.90;;;;;;4974939;28;20027;-49
2023/09/14 00:49:39;;;;;;;6.15;1.85;;;15.90;99.90;;;;;;4974827;28;20034;-54
2023/09/14 00:52:06;;;;;;;3.25;1.80;;;15.80;99.90;;;;;;4973697;28;20027;-48
2023/09/14 00:54:32;;;;;;;3.08;2.15;;;15.80;99.90;;;;;;4974497;28;20037;-49
2023/09/14 00:56:58;;;;;;;3.90;1.88;;;15.80;99.90;;;;;;4974846;28;20023;-48
2023/09/14 00:59:24;;;;;;;3.53;1.92;;;15.70;99.90;;;;;;4974669;28;20058;-49
2023/09/14 01:01:50;;;;;;;5.53;1.70;;;15.70;99.90;;;;;;4974762;28;20077;-47
2023/09/14 01:04:16;;;;;;;5.22;1.70;;;15.60;99.90;;;;;;4974227;28;20050;-49
2023/09/14 01:06:42;;;;;;;6.75;2.13;;;15.60;99.90;;;;;;4974571;28;20022;-47
2023/09/14 01:09:07;;;;;;;4.78;1.98;;;15.60;99.90;;;;;;4974710;28;20050;-47
2023/09/14 01:11:33;;;;;;;3.00;1.55;;;15.60;99.90;;;;;;4974500;28;20054;-47
2023/09/14 01:14:29;;;;;;;4.90;1.98;;;15.50;99.90;;;;;;4974682;28;20053;-51
2023/09/14 01:17:05;;;;;;;5.25;1.80;;;15.50;99.90;;;;;;4974475;28;20562;-50
2023/09/14 01:19:50;;;;;;;10.32;1.98;;;15.40;99.90;;;;;;4974310;28;20035;-48
2023/09/14 01:22:38;;;;;;;4.97;2.13;;;15.40;99.90;;;;;;4974219;28;20018;-47
2023/09/14 01:25:16;;;;;;;4.95;1.88;;;15.40;99.90;;;;;;4973968;28;20034;-47
2023/09/14 01:27:41;;;;;;;4.70;1.83;;;15.30;99.90;;;;;;4974236;28;20027;-50
2023/09/14 01:30:07;;;;;;;5.35;1.88;;;15.40;99.90;;;;;;4974041;28;20037;-49
2023/09/14 01:32:33;;;;;;;4.72;1.80;;;15.40;99.90;;;;;;4974106;28;20031;-47
2023/09/14 01:34:58;;;;;;;2.15;1.67;;;15.40;99.90;;;;;;4973656;28;20383;-47
2023/09/14 01:37:25;;;;;;;2.60;1.80;;;15.30;99.90;;;;;;4973988;28;20479;-50
2023/09/14 01:39:53;;;;;;;3.97;2.08;;;15.30;99.90;;;;;;4973925;28;20038;-48
2023/09/14 01:42:20;;;;;;;4.32;2.03;;;15.30;99.90;;;;;;4973805;28;20030;-48
2023/09/14 01:44:45;;;;;;;4.15;2.35;;;15.20;99.90;;;;;;4973480;28;20450;-47
2023/09/14 01:47:11;;;;;;;4.72;1.83;;;15.20;99.90;;;;;;4973888;28;20018;-47
2023/09/14 01:49:36;;;;;;;4.35;2.10;;;15.20;99.90;;;;;;4972486;28;20026;-48
2023/09/14 01:52:02;;;;;;;5.32;2.67;;;15.20;99.90;;;;;;4973354;28;20466;-49
2023/09/14 01:54:28;;;;;;;5.78;2.53;;;15.30;99.90;;;;;;4973306;28;20058;-47
2023/09/14 01:56:53;;;;;;;4.97;1.98;;;15.20;99.90;;;;;;4973799;28;20035;-47
2023/09/14 01:59:19;;;;;;;4.18;1.70;;;15.20;99.90;;;;;;4973348;28;20039;-48
2023/09/14 02:01:44;;;;;;;3.15;2.30;;;15.20;99.90;;;;;;4973665;28;20035;-51
2023/09/14 02:04:09;;;;;;;2.75;1.80;;;15.20;99.90;;;;;;4973334;28;20038;-52
2023/09/14 02:06:35;;;;;;;6.53;2.00;;;15.10;99.90;;;;;;4973573;28;20467;-46
2023/09/14 02:09:00;;;;;;;6.43;2.15;;;15.00;99.90;;;;;;4972120;28;20034;-53
2023/09/14 02:11:26;;;;;;;3.47;1.92;;;14.90;99.90;;;;;;4973413;28;20061;-48
2023/09/14 02:13:51;;;;;;;2.33;1.77;;;14.80;99.90;;;;;;4973141;28;20027;-48
2023/09/14 02:16:17;;;;;;;3.00;2.22;;;14.80;99.90;;;;;;4971966;28;20073;-48
2023/09/14 02:18:43;;;;;;;5.22;2.35;;;14.80;99.90;;;;;;4973074;28;20081;-50
2023/09/14 02:21:08;;;;;;;6.97;2.47;;;14.80;99.90;;;;;;4973090;28;20085;-48
2023/09/14 02:23:33;;;;;;;6.63;2.20;;;14.90;99.90;;;;;;4973126;28;20034;-51
2023/09/14 02:25:59;;;;;;;4.80;2.10;;;14.90;99.90;;;;;;4973074;28;20561;-52
2023/09/14 02:28:24;;;;;;;3.20;2.08;;;14.90;99.90;;;;;;4973151;28;20399;-47
2023/09/14 02:30:50;;;;;;;4.80;1.80;;;14.90;99.90;;;;;;4972670;28;20027;-49
2023/09/14 02:33:15;;;;;;;4.75;2.03;;;14.90;99.90;;;;;;4972119;28;20038;-48
2023/09/14 02:35:41;;;;;;;4.63;2.10;;;14.90;99.90;;;;;;4971645;28;20536;-47
2023/09/14 02:38:07;;;;;;;4.03;2.25;;;14.80;99.90;;;;;;4972906;28;20062;-49
2023/09/14 02:40:33;;;;;;;3.63;2.03;;;14.70;99.90;;;;;;4973125;28;20027;-48
2023/09/14 02:42:59;;;;;;;5.18;1.95;;;14.60;99.90;;;;;;4972834;28;20031;-49
2023/09/14 02:45:25;;;;;;;5.15;2.33;;;14.60;99.90;;;;;;4972621;28;20023;-49
2023/09/14 02:47:50;;;;;;;4.88;2.28;;;14.60;99.90;;;;;;4972920;28;20031;-47
2023/09/14 02:50:16;;;;;;;8.10;3.00;;;14.60;99.90;;;;;;4972923;28;20035;-50
2023/09/14 02:52:42;;;;;;;4.63;2.28;;;14.60;99.90;;;;;;4972706;28;20098;-51
2023/09/14 02:55:08;;;;;;;3.95;2.50;;;14.70;99.90;;;;;;4972538;28;20031;-48
2023/09/14 02:57:33;;;;;;;2.15;1.95;;;14.70;99.90;;;;;;4972703;28;20023;-48
2023/09/14 02:59:59;;;;;;;7.50;2.03;;;14.70;99.90;;;;;;4972561;28;20030;-52
2023/09/14 03:02:25;;;;;;;7.07;2.28;;;14.70;99.90;;;;;;4972526;28;20031;-48
2023/09/14 03:04:50;;;;;;;7.22;2.15;;;14.70;99.90;;;;;;4972622;28;20026;-51
2023/09/14 03:07:16;;;;;;;4.28;2.20;;;14.80;99.90;;;;;;4971454;28;20499;-49
2023/09/14 03:09:42;;;;;;;3.60;2.63;;;14.70;99.90;;;;;;4972685;28;20034;-47
2023/09/14 03:12:08;;;;;;;5.35;2.47;;;14.60;99.90;;;;;;4972598;28;20105;-52
2023/09/14 03:14:33;;;;;;;4.43;2.20;;;14.50;99.90;;;;;;4973241;28;20027;-49
2023/09/14 03:16:59;;;;;;;4.30;2.58;;;14.50;99.90;;;;;;4976511;28;20089;-47
2023/09/14 03:19:25;;;;;;;3.75;1.98;;;14.40;99.90;;;;;;4976518;28;20242;-48
2023/09/14 03:21:50;;;;;;;5.07;2.38;;;14.40;99.90;;;;;;4975298;28;20555;-48
2023/09/14 03:24:16;;;;;;;4.97;2.22;;;14.40;99.90;;;;;;4976160;28;20019;-46
2023/09/14 03:26:42;;;;;;;7.32;2.10;;;14.30;99.90;;;;;;4976356;28;20093;-49
2023/09/14 03:29:07;;;;;;;4.97;2.53;;;14.30;99.90;;;;;;4976242;28;20133;-50
2023/09/14 03:31:33;;;;;;;4.13;2.65;;;14.20;99.90;;;;;;4976321;28;20034;-51
2023/09/14 03:33:58;;;;;;;6.40;2.20;;;14.20;99.90;;;;;;4976116;28;20442;-50
2023/09/14 03:36:24;;;;;;;4.55;2.42;;;14.10;99.90;;;;;;4976060;28;20058;-49
2023/09/14 03:38:50;;;;;;;5.45;2.42;;;14.10;99.90;;;;;;4976100;28;20022;-47
2023/09/14 03:41:15;;;;;;;5.32;2.85;;;14.10;99.90;;;;;;4975948;28;20038;-47
2023/09/14 03:43:41;;;;;;;5.65;2.50;;;14.10;99.90;;;;;;4974639;28;20027;-50
2023/09/14 03:46:07;;;;;;;5.55;2.30;;;14.10;99.90;;;;;;4975845;28;20026;-49
2023/09/14 03:48:33;;;;;;;5.65;2.50;;;14.10;99.90;;;;;;4976113;28;20050;-47
2023/09/14 03:51:00;;;;;;;3.90;2.53;;;14.00;99.90;;;;;;4976081;28;20031;-47
2023/09/14 03:53:27;;;;;;;4.82;2.25;;;14.00;99.90;;;;;;4974270;28;20053;-47
2023/09/14 03:55:56;;;;;;;5.53;2.28;;;14.00;99.90;;;;;;4974257;28;20026;-47
2023/09/14 03:58:23;;;;;;;4.20;2.60;;;14.00;99.90;;;;;;4976004;28;20038;-47
2023/09/14 04:00:48;;;;;;;9.63;2.83;;;14.00;99.90;;;;;;4975811;28;20453;-51
2023/09/14 04:03:16;;;;;;;3.88;2.30;;;14.00;99.90;;;;;;4975671;28;20030;-51
2023/09/14 04:05:41;;;;;;;5.22;2.15;;;13.90;99.90;;;;;;4975389;28;20066;-49
2023/09/14 04:08:07;;;;;;;3.33;2.17;;;13.90;99.90;;;;;;4975722;28;20121;-49
2023/09/14 04:10:35;;;;;;;3.88;2.60;;;14.00;99.90;;;;;;4975510;28;20045;-48
2023/09/14 04:13:39;;;;;;;5.97;3.05;;;14.00;99.90;;;;;;4975575;28;20039;-47
2023/09/14 04:16:06;;;;;;;5.63;3.45;;;14.00;99.90;;;;;;4973913;28;20511;-49
2023/09/14 04:18:36;;;;;;;4.15;3.55;;;14.10;99.90;;;;;;4974060;28;20035;-48
2023/09/14 04:21:03;;;;;;;8.30;2.40;;;14.10;99.90;;;;;;4975446;28;20478;-49
2023/09/14 04:23:28;;;;;;;3.28;2.38;;;14.10;99.90;;;;;;4975304;28;20565;-48
2023/09/14 04:25:54;;;;;;;6.43;3.63;;;14.20;99.90;;;;;;4973952;28;20060;-49
2023/09/14 04:28:21;;;;;;;6.13;2.80;;;14.10;99.90;;;;;;4975130;28;20130;-48
2023/09/14 04:30:49;;;;;;;5.88;2.55;;;14.10;99.90;;;;;;4975262;28;20030;-48
2023/09/14 04:33:16;;;;;;;5.45;3.22;;;14.10;99.90;;;;;;4975150;28;20039;-48
2023/09/14 04:35:42;;;;;;;5.50;2.55;;;14.00;99.90;;;;;;4973556;28;20142;-52
2023/09/14 04:38:08;;;;;;;4.10;2.40;;;14.00;99.90;;;;;;4975050;28;20054;-47
2023/09/14 04:40:39;;;;;;;3.85;2.80;;;13.90;99.90;;;;;;4973903;28;20161;-51
2023/09/14 04:43:05;;;;;;;3.20;2.28;;;13.80;99.90;;;;;;4973714;28;20031;-51
2023/09/14 04:45:31;;;;;;;5.00;3.45;;;13.70;99.90;;;;;;4974722;28;20484;-53
2023/09/14 04:47:57;;;;;;;6.82;3.47;;;13.70;99.90;;;;;;4974940;28;20071;-51
2023/09/14 04:50:23;;;;;;;3.50;2.50;;;13.70;99.90;;;;;;4974794;28;20023;-48
2023/09/14 04:52:48;;;;;;;3.67;2.80;;;13.60;99.90;;;;;;4974521;28;20519;-52
2023/09/14 04:55:14;;;;;;;5.45;2.42;;;13.70;99.90;;;;;;4973131;28;20031;-50
2023/09/14 04:57:39;;;;;;;7.70;3.20;;;13.70;99.90;;;;;;4974806;28;20029;-48
2023/09/14 05:00:06;;;;;;;8.57;2.97;;;13.70;99.90;;;;;;4974761;28;20105;-52
2023/09/14 05:02:31;;;;;;;10.77;3.85;;;13.70;99.90;;;;;;4974630;28;20022;-47
2023/09/14 05:04:57;;;;;;;9.32;3.92;;;13.70;99.90;;;;;;4974712;28;20046;-50
2023/09/14 05:07:22;;;;;;;17.15;5.38;;;13.60;99.90;;;;;;4974755;28;20026;-49
2023/09/14 05:09:48;;;;;;;9.90;3.58;;;13.60;99.90;;;;;;4974811;28;20038;-47
2023/09/14 05:12:13;;;;;;;5.20;3.30;;;13.60;99.90;;;;;;4974405;28;20034;-51
2023/09/14 05:14:39;;;;;;;7.10;4.43;;;13.60;99.90;;;;;;4974040;28;20110;-49
2023/09/14 05:17:04;;;;;;;5.50;3.22;;;13.60;99.90;;;;;;4974344;28;20035;-49
2023/09/14 05:19:30;;;;;;;4.75;3.45;;;13.50;99.90;;;;;;4974169;28;20157;-53
2023/09/14 05:21:56;;;;;;;7.20;3.10;;;13.50;99.90;;;;;;4974203;28;20019;-49
2023/09/14 05:24:21;;;;;;;6.25;3.15;;;13.50;99.90;;;;;;4973901;28;20023;-49
2023/09/14 05:26:48;;;;;;;6.45;2.78;;;13.50;99.90;;;;;;4974128;28;20102;-49
2023/09/14 05:29:14;;;;;;;5.53;3.08;;;13.50;99.90;;;;;;4974036;28;20389;-49
2023/09/14 05:31:39;;;;;;;6.22;3.00;;;13.40;99.90;;;;;;4974063;28;20045;-48
2023/09/14 05:34:06;;;;;;;4.10;2.88;;;13.40;99.90;;;;;;4972488;28;20042;-48
2023/09/14 05:36:31;;;;;;;11.40;3.40;;;13.40;99.90;;;;;;4972721;28;20506;-49
2023/09/14 05:38:57;;;;;;;9.05;3.53;;;13.40;99.90;;;;;;4972354;28;20031;-48
2023/09/14 05:41:22;;;;;;;8.85;3.03;;;13.50;99.90;;;;;;4972500;28;20117;-50
2023/09/14 05:43:48;;;;;;;9.15;3.30;;;13.50;99.90;;;;;;4973790;28;20029;-48
2023/09/14 05:46:13;;;;;;;5.68;2.58;;;13.50;99.90;;;;;;4972504;28;20038;-48
2023/09/14 05:48:39;;;;;;;3.65;2.88;;;13.70;99.90;;;;;;4974537;28;20043;-48
2023/09/14 05:51:04;;;;;;;6.90;3.17;;;13.70;99.90;;;;;;4972422;28;20490;-50
2023/09/14 05:53:30;;;;;;;5.57;3.08;;;13.80;99.90;;;;;;4973916;28;20188;-51
2023/09/14 05:55:55;;;;;;;5.47;2.90;;;13.80;99.90;;;;;;4973444;28;20351;-52
2023/09/14 05:58:21;;;;;;;6.55;3.17;;;13.80;99.90;;;;;;4973568;28;20038;-48
2023/09/14 06:00:46;;;;;;;5.53;3.08;;;13.80;99.90;;;;;;4973431;28;20430;-48
2023/09/14 06:03:13;;;;;;;9.98;3.58;;;13.90;99.90;;;;;;4972183;28;20022;-48
2023/09/14 06:05:39;;;;;;;4.30;2.47;;;14.00;99.90;;;;;;4973348;28;20478;-48
2023/09/14 06:08:05;;;;;;;6.95;2.78;;;14.00;99.90;;;;;;4973597;28;20026;-48
2023/09/14 06:10:30;;;;;;;11.77;2.95;;;14.10;99.90;;;;;;4973141;28;20065;-48
2023/09/14 06:12:56;;;;;;;8.45;2.60;;;14.10;99.90;;;;;;4973090;28;20390;-51
2023/09/14 06:15:23;;;;;;;5.97;2.85;;;14.10;99.90;;;;;;4972916;28;20031;-48
2023/09/14 06:17:48;;;;;;;11.48;3.45;;;14.20;99.90;;;;;;4973192;28;20025;-48
2023/09/14 06:20:14;;;;;;;8.70;3.53;;;14.30;99.90;;;;;;4973496;28;20026;-49
2023/09/14 06:22:39;;;;;;;8.45;2.80;;;14.30;99.90;;;;;;4973111;28;20450;-48
2023/09/14 06:25:05;;;;;;;6.68;3.38;;;14.30;99.90;;;;;;4972887;28;20023;-46
2023/09/14 06:27:31;;;;;;;6.10;3.83;;;14.40;99.90;;;;;;4973241;28;20035;-48
2023/09/14 06:29:56;;;;;;;4.85;2.80;;;14.60;99.90;;;;;;4973262;28;20486;-49
2023/09/14 06:32:22;;;;;;;5.22;2.80;;;14.70;99.90;;;;;;4973213;28;20026;-51
2023/09/14 06:34:48;;;;;;;11.68;3.35;;;14.70;99.90;;;;;;4972764;28;20027;-49
2023/09/14 06:37:13;;;;;;;11.50;3.22;;;14.70;99.90;;;;;;4973078;28;20115;-51
2023/09/14 06:39:39;;;;;;;10.90;3.25;;;14.90;99.90;;;;;;4974928;28;20105;-52
2023/09/14 06:42:04;;;;;;;6.95;2.75;;;15.00;99.90;;;;;;4972744;28;20073;-54
2023/09/14 06:44:30;;;;;;;8.80;3.42;;;15.20;99.90;;;;;;4976709;28;20555;-51
2023/09/14 06:46:56;;;;;;;7.32;3.22;;;15.50;99.90;;;;;;4988883;28;20030;-52
2023/09/14 06:49:21;;;;;;;9.48;3.25;;;15.90;99.90;;;;;;4991096;28;20030;-51
2023/09/14 06:51:47;;;;;;;3.92;2.58;;;16.30;99.90;;;;;;4991720;28;20045;-48
2023/09/14 06:54:13;;;;;;;6.32;3.58;;;16.90;99.90;;;;;;4991759;28;20030;-52
2023/09/14 06:56:39;;;;;;;8.60;3.05;;;17.80;99.90;;;;;;4991814;28;20034;-50
2023/09/14 06:59:05;;;;;;;3.42;2.30;;;18.80;99.90;;;;;;4991856;28;20105;-52
2023/09/14 07:01:31;;;;;;;4.00;2.85;;;19.50;99.90;;;;;;4990234;28;20031;-48
2023/09/14 07:03:56;;;;;;;7.43;2.70;;;20.30;99.90;;;;;;4991747;28;20026;-53
2023/09/14 07:06:22;;;;;;;9.07;3.30;;;20.80;99.90;;;;;;4992057;28;20529;-52
2023/09/14 07:08:48;;;;;;;8.52;3.50;;;21.50;99.90;;;;;;4991918;28;20109;-50
2023/09/14 07:11:14;;;;;;;5.22;2.65;;;22.00;99.90;;;;;;4991783;28;20033;-49
2023/09/14 07:13:40;;;;;;;6.43;3.05;;;22.30;99.90;;;;;;4981807;28;20027;-53
2023/09/14 07:16:06;;;;;;;8.23;2.63;;;22.40;99.90;;;;;;4971160;28;20045;-51
2023/09/14 07:18:34;;;;;;;9.05;2.58;;;22.30;99.90;;;;;;4972503;28;20446;-52
2023/09/14 07:21:02;;;;;;;5.45;2.78;;;22.40;99.90;;;;;;4972475;28;20442;-50
2023/09/14 07:23:28;;;;;;;4.13;2.65;;;22.30;99.90;;;;;;4972413;28;20505;-49
2023/09/14 07:25:54;;;;;;;6.03;2.15;;;22.30;99.90;;;;;;4972562;28;20031;-49
2023/09/14 07:28:21;;;;;;;7.55;2.58;;;22.40;99.90;;;;;;4974268;28;20085;-50
2023/09/14 07:30:48;;;;;;;7.63;2.80;;;22.70;99.90;;;;;;4984420;28;20042;-49
2023/09/14 07:33:14;;;;;;;7.00;2.65;;;22.70;99.90;;;;;;4991862;28;20026;-50
2023/09/14 07:35:40;;;;;;;7.85;2.40;;;23.20;99.90;;;;;;4991725;28;20394;-53
2023/09/14 07:38:10;;;;;;;6.18;2.58;;;23.40;99.20;;;;;;4991775;28;20028;-49
2023/09/14 07:40:37;;;;;;;5.22;2.85;;;23.70;98.50;;;;;;4984877;28;20099;-50
2023/09/14 07:43:02;;;;;;;8.48;2.45;;;23.80;98.30;;;;;;4972358;28;20402;-51
2023/09/14 07:45:35;;;;;;;3.83;2.20;;;23.90;98.40;;;;;;4972349;28;20023;-51
2023/09/14 07:48:02;;;;;;;2.65;2.45;;;24.30;98.10;;;;;;4972395;28;20401;-52
2023/09/14 07:50:28;;;;;;;4.45;2.08;;;24.70;97.20;;;;;;4972215;28;20058;-49
2023/09/14 07:52:53;;;;;;;5.95;2.10;;;24.90;96.50;;;;;;4972053;28;20089;-49
2023/09/14 07:55:19;;;;;;;6.47;3.65;;;24.80;96.40;;;;;;4971736;28;20490;-49
2023/09/14 07:57:44;;;;;;;3.47;1.90;;;24.70;96.70;;;;;;4972058;28;20035;-51
2023/09/14 08:00:10;;;;;;;7.45;2.85;;;24.90;96.30;;;;;;4983619;28;20046;-48
2023/09/14 08:02:36;;;;;;;6.50;2.45;;;24.80;95.90;;;;;;4985028;28;20062;-51
2023/09/14 08:05:02;;;;;;;6.25;2.45;;;24.00;96.60;;;;;;4974202;28;20030;-49
2023/09/14 08:07:27;;;;;;;6.70;2.83;;;24.00;97.30;;;;;;4975650;28;20533;-51
2023/09/14 08:09:53;;;;;;;4.90;2.55;;;24.20;96.90;;;;;;4975632;28;20403;-49
2023/09/14 08:12:18;;;;;;;6.32;2.88;;;24.50;96.30;;;;;;4975471;28;20101;-52
2023/09/14 08:14:44;;;;;;;5.93;2.17;;;24.40;95.70;;;;;;4975162;28;20031;-50
2023/09/14 08:17:11;;;;;;;6.78;2.05;;;23.40;96.20;;;;;;4975491;28;20031;-52
2023/09/14 08:19:36;;;;;;;3.80;2.00;;;22.60;97.80;;;;;;4975330;28;20027;-49
2023/09/14 08:22:03;;;;;;;7.60;1.80;;;22.20;98.20;;;;;;4975232;28;20463;-49
2023/09/14 08:24:29;;;;;;;4.07;1.92;;;21.40;99.10;;;;;;4974871;28;20018;-55
2023/09/14 08:26:55;;;;;;;7.40;2.58;;;20.50;99.90;;;;;;4975242;28;20410;-49
2023/09/14 08:29:20;;;;;;;3.42;1.98;;;19.90;99.90;;;;;;4975345;28;20030;-50
2023/09/14 08:31:48;;;;;;;5.75;3.10;;;19.10;99.90;;;;;;4973763;28;20059;-50
2023/09/14 08:34:14;;;;;;;16.20;9.98;;;19.10;99.90;;;;;;4974719;28;20042;-48
2023/09/14 08:36:39;;;;;;;7.43;2.10;;;19.10;99.90;;;;;;4974887;28;20038;-49
2023/09/14 08:39:05;;;;;;;6.05;2.53;;;18.60;99.90;;;;;;4974832;28;20034;-51
2023/09/14 08:41:43;;;;;;;6.20;2.28;;;18.70;99.90;;;;;;4974251;28;20063;-48
2023/09/14 08:44:08;;;;;;;7.00;2.72;;;19.10;99.90;;;;;;4975120;28;20102;-48
2023/09/14 08:46:35;;;;;;;5.05;2.30;;;19.70;99.90;;;;;;4984312;28;20467;-53
2023/09/14 08:49:02;;;;;;;4.22;2.00;;;20.50;99.90;;;;;;4974954;28;20097;-49
2023/09/14 08:51:34;;;;;;;7.68;2.53;;;21.30;99.90;;;;;;4974751;28;20506;-51
2023/09/14 08:54:00;;;;;;;6.40;2.20;;;22.10;99.90;;;;;;4974505;28;20034;-51
2023/09/14 08:56:27;;;;;;;5.68;2.08;;;22.70;98.80;;;;;;4974428;28;20089;-51
2023/09/14 08:58:54;;;;;;;8.90;2.72;;;23.70;98.40;;;;;;4974237;28;20035;-49
2023/09/14 09:01:19;;;;;;;7.75;2.08;;;24.50;97.20;;;;;;4978495;28;20019;-49
2023/09/14 09:03:45;;;;;;;4.68;2.22;;;24.80;96.40;;;;;;4973254;28;20153;-49
2023/09/14 09:06:11;;;;;;;4.53;1.90;;;25.10;95.30;;;;;;4980207;28;20061;-49
2023/09/14 09:08:37;;;;;;;8.57;2.10;;;24.90;95.10;;;;;;4984357;28;20074;-50
2023/09/14 09:11:04;;;;;;;3.78;1.80;;;24.20;96.70;;;;;;4973605;28;20026;-51
2023/09/14 09:13:34;;;;;;;3.58;1.63;;;23.90;96.90;;;;;;4973234;28;20031;-55
2023/09/14 09:15:59;;;;;;;4.63;1.90;;;23.60;97.30;;;;;;4984730;28;20030;-47
2023/09/14 09:18:25;;;;;;;7.35;2.33;;;23.90;96.80;;;;;;4974382;28;20042;-47
2023/09/14 09:20:51;;;;;;;4.32;1.77;;;23.80;95.70;;;;;;4973905;28;20023;-50
2023/09/14 09:23:20;;;;;;;6.72;2.17;;;23.70;95.30;;;;;;4974277;28;20054;-49
2023/09/14 09:25:52;;;;;;;6.50;2.10;;;24.20;93.90;;;;;;4973666;28;20035;-47
2023/09/14 09:28:18;;;;;;;11.23;2.47;;;23.80;94.50;;;;;;4974518;28;20026;-49
2023/09/14 09:30:44;;;;;;;8.35;1.98;;;23.90;95.00;;;;;;4974010;28;20026;-49
2023/09/14 09:33:10;;;;;;;6.10;2.00;;;23.80;94.90;;;;;;4973918;28;20030;-52
2023/09/14 09:35:36;;;;;;;6.20;1.88;;;23.60;94.50;;;;;;4973558;28;20505;-50
2023/09/14 09:38:16;;;;;;;7.28;1.90;;;23.70;94.90;;;;;;4974116;28;20372;-49
2023/09/14 09:40:43;;;;;;;5.93;1.85;;;22.90;95.40;;;;;;4973560;28;20039;-49
2023/09/14 09:43:08;;;;;;;3.33;1.80;;;23.00;95.50;;;;;;4973380;28;20105;-53
2023/09/14 09:45:38;;;;;;;9.68;2.53;;;23.00;95.90;;;;;;4974772;28;20106;-49
2023/09/14 09:48:05;;;;;;;5.22;2.20;;;22.30;96.20;;;;;;4973740;28;20022;-53
2023/09/14 09:50:31;;;;;;;5.80;2.20;;;22.00;96.40;;;;;;4973780;28;20104;-50
2023/09/14 09:52:57;;;;;;;6.40;1.88;;;22.00;97.50;;;;;;4973527;28;20027;-49
2023/09/14 09:55:25;;;;;;;2.80;1.73;;;22.10;97.60;;;;;;4974508;28;20035;-48
2023/09/14 09:57:53;;;;;;;5.07;2.28;;;21.90;95.90;;;;;;4972481;28;20031;-49
2023/09/14 10:00:20;;;;;;;5.65;1.65;;;21.70;97.10;;;;;;4982541;28;20560;-47
2023/09/14 10:02:47;;;;;;;2.70;1.77;;;21.40;96.80;;;;;;4993066;28;20026;-50
2023/09/14 10:05:14;;;;;;;4.47;2.47;;;21.40;97.60;;;;;;4992525;28;20492;-50
2023/09/14 10:07:41;;;;;;;16.17;7.45;;;21.30;97.40;;;;;;4978963;28;20031;-49
2023/09/14 10:10:12;;;;;;;22.30;16.00;;;21.30;97.90;;;;;;4972224;28;20058;-55
2023/09/14 10:12:39;;;;;;;7.85;3.22;;;21.30;96.30;;;;;;4972959;28;20030;-55
2023/09/14 10:15:14;;;;;;;4.30;2.20;;;21.30;96.90;;;;;;4972893;28;20034;-57
2023/09/14 10:17:39;;;;;;;5.15;2.33;;;21.30;97.80;;;;;;4971458;28;20038;-51
2023/09/14 10:20:06;;;;;;;7.53;3.05;;;21.40;98.10;;;;;;4987499;28;20026;-52
2023/09/14 10:22:32;;;;;;;3.08;1.52;;;21.50;97.70;;;;;;4972575;28;20043;-51
2023/09/14 10:24:58;;;;;;;2.88;1.90;;;21.10;97.30;;;;;;4976753;28;20030;-47
2023/09/14 10:27:27;;;;;;;6.95;1.77;;;21.00;97.30;;;;;;4970667;28;20033;-50
2023/09/14 10:29:55;;;;;;;3.22;2.10;;;20.80;98.20;;;;;;4971951;28;20486;-47
2023/09/14 10:32:23;;;;;;;4.85;2.08;;;21.00;97.90;;;;;;4972537;28;20050;-49
2023/09/14 10:34:50;;;;;;;6.30;2.13;;;21.00;97.60;;;;;;4985785;28;20023;-50
2023/09/14 10:37:18;;;;;;;6.43;1.63;;;20.80;97.50;;;;;;4972747;28;20057;-50
2023/09/14 10:39:44;;;;;;;8.18;1.83;;;21.00;97.70;;;;;;4972884;28;20031;-48
2023/09/14 10:42:10;;;;;;;4.97;2.03;;;21.20;97.00;;;;;;4972683;28;20062;-47
2023/09/14 10:44:36;;;;;;;4.18;1.40;;;21.00;98.70;;;;;;4976157;28;20500;-49
2023/09/14 10:47:03;;;;;;;2.30;1.42;;;21.10;98.50;;;;;;4971184;28;20494;-48
2023/09/14 10:49:32;;;;;;;2.78;1.70;;;21.10;97.40;;;;;;4972898;28;20062;-45
2023/09/14 10:51:57;;;;;;;5.00;1.80;;;21.00;97.00;;;;;;4972450;28;20085;-49
2023/09/14 10:54:28;;;;;;;4.15;2.00;;;20.70;97.70;;;;;;4977806;28;20035;-45
2023/09/14 10:57:02;;;;;;;6.38;1.40;;;20.60;98.30;;;;;;4976976;28;20494;-45
2023/09/14 10:59:50;;;;;;;3.63;1.80;;;20.50;97.30;;;;;;4973168;28;20127;-51
2023/09/14 11:02:43;;;;;;;2.60;1.27;;;20.20;97.70;;;;;;4972742;28;20018;-46
2023/09/14 11:05:13;;;;;;;4.32;1.88;;;20.00;98.20;;;;;;4949078;28;20449;-44
2023/09/14 11:07:41;;;;;;;3.28;1.80;;;19.80;98.90;;;;;;4972959;28;20022;-45
2023/09/14 11:10:09;;;;;;;10.65;2.28;;;19.80;99.10;;;;;;4972725;28;20027;-45
2023/09/14 11:12:34;;;;;;;5.97;1.65;;;19.80;99.40;;;;;;4973634;28;20109;-46
2023/09/14 11:15:15;;;;;;;19.02;12.40;;;19.90;99.30;;;;;;4972680;28;20031;-50
2023/09/14 11:17:45;;;;;;;5.55;4.00;;;20.00;99.30;;;;;;4989622;28;20597;-49
2023/09/14 11:20:19;;;;;;;3.95;2.08;;;20.00;99.30;;;;;;4992023;28;20162;-46
2023/09/14 11:22:49;;;;;;;2.10;1.67;;;19.90;98.80;;;;;;4984186;28;20031;-51
2023/09/14 11:25:36;;;;;;;5.55;1.80;;;20.10;99.40;;;;;;4976956;28;20038;-47
2023/09/14 11:28:02;;;;;;;4.90;1.58;;;20.10;98.60;;;;;;4991736;28;20490;-50
2023/09/14 11:30:28;;;;;;;4.80;1.60;;;20.00;98.70;;;;;;4991837;28;20030;-45
2023/09/14 11:32:54;;;;;;;6.68;1.60;;;20.10;99.50;;;;;;4991816;28;20054;-47
2023/09/14 11:35:34;;;;;;;4.60;1.65;;;20.10;99.00;;;;;;4992270;28;20046;-43
2023/09/14 11:38:05;;;;;;;1.75;1.20;;;20.10;99.10;;;;;;4995533;28;20023;-46
2023/09/14 11:40:33;;;;;;;4.95;1.75;;;20.20;98.50;;;;;;4995545;28;20021;-45
2023/09/14 11:43:07;;;;;;;4.57;1.80;;;20.20;98.20;;;;;;4995094;28;20037;-46
2023/09/14 11:45:42;;;;;;;5.35;2.08;;;20.10;98.30;;;;;;4995247;28;20022;-45
2023/09/14 11:48:13;;;;;;;1.75;1.20;;;20.10;98.70;;;;;;4996057;28;20035;-51
2023/09/14 11:50:41;;;;;;;5.00;1.42;;;20.20;99.00;;;;;;4995354;28;20109;-47
2023/09/14 11:53:10;;;;;;;4.22;1.45;;;20.20;98.20;;;;;;4995319;28;20542;-49
2023/09/14 11:55:39;;;;;;;4.22;2.15;;;20.20;98.80;;;;;;4995079;28;20030;-48
2023/09/14 11:58:05;;;;;;;5.13;2.78;;;20.10;98.90;;;;;;4995166;28;20026;-51
2023/09/14 12:00:37;;;;;;;3.58;2.28;;;20.10;99.50;;;;;;4995301;28;20028;-49
2023/09/14 12:03:03;;;;;;;4.07;1.90;;;20.10;98.50;;;;;;4995451;28;20030;-51
2023/09/14 12:05:30;;;;;;;4.20;1.48;;;20.20;98.40;;;;;;4995328;28;20018;-50
2023/09/14 12:07:56;;;;;;;5.72;2.38;;;20.30;98.40;;;;;;4995006;28;20019;-49
2023/09/14 12:10:23;;;;;;;5.78;1.52;;;20.40;98.20;;;;;;4995120;28;20371;-53
2023/09/14 12:12:49;;;;;;;4.53;1.45;;;20.40;98.50;;;;;;4995265;28;20478;-49
2023/09/14 12:15:18;;;;;;;4.35;1.70;;;20.20;98.20;;;;;;4994811;28;20106;-47
2023/09/14 12:17:52;;;;;;;3.17;1.63;;;20.10;98.60;;;;;;4995127;28;20081;-49
2023/09/14 12:20:18;;;;;;;2.80;1.70;;;20.10;99.10;;;;;;4995060;28;20541;-52
2023/09/14 12:22:45;;;;;;;2.10;1.50;;;20.20;99.00;;;;;;4994541;28;20030;-49
2023/09/14 12:25:17;;;;;;;7.70;4.38;;;20.30;99.50;;;;;;4994907;28;20080;-52
2023/09/14 12:27:43;;;;;;;5.63;1.98;;;20.40;99.60;;;;;;4994701;28;20019;-49
2023/09/14 12:30:10;;;;;;;8.95;3.35;;;20.50;98.10;;;;;;4994271;28;20027;-54
2023/09/14 12:32:38;;;;;;;5.93;2.60;;;20.60;99.10;;;;;;4994590;28;20026;-50
2023/09/14 12:35:08;;;;;;;3.33;1.52;;;20.50;98.60;;;;;;4994280;28;20107;-49
2023/09/14 12:37:35;;;;;;;3.95;1.80;;;20.50;98.80;;;;;;4994455;28;20023;-49
2023/09/14 12:40:07;;;;;;;3.42;1.98;;;20.40;98.80;;;;;;4994360;28;20110;-47
2023/09/14 12:42:34;;;;;;;3.38;2.17;;;20.50;98.80;;;;;;4994348;28;20026;-50
2023/09/14 12:45:00;;;;;;;6.68;2.42;;;20.50;97.90;;;;;;4994057;28;20397;-47